Metar z połowy godziny Komunikat METAR ze strony awiacja.imgw.pl Metar G30 EPMB METAR EPMB 200930Z 20007KT CAVOK 28/19 Q1009 RMK 281 058 4/4=